Welcome to the official SWISS VA FORUM
 
HomeHome  CalendarCalendar  FAQFAQ  SearchSearch  MemberlistMemberlist  UsergroupsUsergroups  RegisterRegister  Log inLog in  

Share | 
 

 [IVAO] A321 SWISS - UUDD

View previous topic View next topic Go down 
AuthorMessage
ETZLINGERA

avatar

Posts : 42
Join date : 2017-01-05
Age : 20
Location : Geneva

PostSubject: [IVAO] A321 SWISS - UUDD   2017-01-08, 00:14

------------------------------
LX1324
LSZH - UUDD
DEP TIME 2015z
ARR TIME 0000z

------------------------------

WX UUDD METAR
072330Z 01003MPS 2800 R32R/P2000 -SN BR FEW003 M26/M29 Q1024 R32R/450294 TEMPO 1500 BR

------------------------------






_________________
Etzlinger Alexandre
Assistant Chief Executive Officer
& Helvetic Airways Fleet Chief
Back to top Go down
View user profile
 
[IVAO] A321 SWISS - UUDD
View previous topic View next topic Back to top 
Page 1 of 1
 Similar topics
-
» Swiss Championship 2014
» Pit crew template
» SpeedHunters - Maximum Attack | Round 1 | Swiss Blitz! |
» Super Swiss 8CPU
» Eight-Headed Monsters II 8CPU (9 Round Swiss)

Permissions in this forum:You cannot reply to topics in this forum
Swiss Virtual Intl. Airlines :: Swiss Intl. Virtual Airlines :: Flight pictures & videos-
Jump to: